Time;durP1;ratioP1;P1;durP2;ratioP2;P2;SDS_P1;SDS_P2;PMS_P1;PMS_P2;Temp;Humidity;BMP_temperature;BMP_pressure;BME280_temperature;BME280_humidity;BME280_pressure;Samples;Min_cycle;Max_cycle;Signal;HPM_P1;HPM_P2
2023/07/15 00:01:15;;;;;;;;;1.00;1.00;;;;;31.41;39.96;99948.34;2096938;28;46238;-57
2023/07/15 00:02:16;;;;;;;;;0.80;0.80;;;;;31.39;39.65;99943.06;2099185;28;46371;-57
2023/07/15 00:03:18;;;;;;;;;0.75;0.75;;;;;31.40;39.92;99946.66;2105971;28;46268;-57
2023/07/15 00:04:19;;;;;;;;;0.00;0.00;;;;;31.39;39.47;99943.06;2105626;28;47074;-55
2023/07/15 00:05:28;;;;;;;;;1.00;1.00;;;;;31.39;40.10;99942.19;2096951;28;46307;-57
2023/07/15 00:06:28;;;;;;;;;1.40;1.00;;;;;31.39;40.49;99939.47;2098046;28;46610;-57
2023/07/15 00:07:29;;;;;;;;;0.00;0.00;;;;;31.38;40.75;99944.09;2106080;28;46363;-59
2023/07/15 00:08:31;;;;;;;;;0.25;0.25;;;;;31.37;40.16;99947.84;2105792;28;46664;-56
2023/07/15 00:09:33;;;;;;;;;0.00;0.00;;;;;31.36;40.26;99946.16;2105748;28;46740;-59
2023/07/15 00:10:37;;;;;;;;;2.20;1.00;;;;;31.36;40.37;99948.88;2106041;28;46389;-57
2023/07/15 00:11:43;;;;;;;;;0.00;0.00;;;;;31.33;40.73;99949.25;2105741;28;46059;-58
2023/07/15 00:12:43;;;;;;;;;2.60;2.00;;;;;31.32;41.40;99944.81;2105655;28;47186;-58
2023/07/15 00:13:43;;;;;;;;;1.50;0.75;;;;;31.32;41.79;99942.09;2096668;28;46557;-56
2023/07/15 00:14:44;;;;;;;;;0.25;0.25;;;;;31.31;41.35;99943.13;2096758;28;46360;-57
2023/07/15 00:15:47;;;;;;;;;0.75;0.75;;;;;31.30;41.41;99939.53;2106009;28;46302;-56
2023/07/15 00:16:51;;;;;;;;;1.80;0.80;;;;;31.29;41.89;99940.56;2105856;28;46854;-56
2023/07/15 00:17:52;;;;;;;;;2.00;2.00;;;;;31.29;41.76;99931.50;2097152;28;45512;-58
2023/07/15 00:18:52;;;;;;;;;0.50;0.50;;;;;31.29;41.57;99939.72;2096020;28;46772;-57
2023/07/15 00:19:53;;;;;;;;;2.00;2.00;;;;;31.27;42.01;99942.66;2097213;28;46467;-56
2023/07/15 00:20:53;;;;;;;;;2.00;0.00;;;;;31.29;42.20;99937.81;2101197;28;46313;-57
2023/07/15 00:21:53;;;;;;;;;0.75;0.00;;;;;31.28;42.11;99941.59;2105044;27;46551;-57
2023/07/15 00:22:54;;;;;;;;;1.75;1.00;;;;;31.30;42.69;99939.53;2105610;28;46782;-57
2023/07/15 00:23:57;;;;;;;;;3.00;2.00;;;;;31.30;41.75;99942.28;2105453;28;46604;-56
2023/07/15 00:24:58;;;;;;;;;0.40;0.40;;;;;31.30;42.18;99944.16;2087173;28;46567;-55
2023/07/15 00:25:58;;;;;;;;;2.00;2.00;;;;;31.31;42.32;99945.88;2087906;28;46219;-58
2023/07/15 00:26:58;;;;;;;;;1.00;1.00;;;;;31.29;42.46;99932.34;2088109;28;46424;-58
2023/07/15 00:27:59;;;;;;;;;2.50;2.50;;;;;31.28;42.19;99941.59;2087592;28;46468;-56
2023/07/15 00:29:00;;;;;;;;;1.00;1.00;;;;;31.27;43.24;99947.28;2079505;28;46707;-56
2023/07/15 00:30:00;;;;;;;;;1.00;1.00;;;;;31.26;42.97;99943.69;2055190;28;46800;-58
2023/07/15 00:31:00;;;;;;;;;0.00;0.00;;;;;31.23;43.36;99941.28;2062743;28;46840;-56
2023/07/15 00:32:04;;;;;;;;;1.25;1.25;;;;;31.24;42.91;99939.41;2088179;28;46284;-55
2023/07/15 00:33:08;;;;;;;;;2.00;1.00;;;;;31.23;43.26;99944.03;2088043;28;46797;-55
2023/07/15 00:34:09;;;;;;;;;1.00;0.00;;;;;31.23;43.66;99949.53;2088111;28;47031;-57
2023/07/15 00:35:18;;;;;;;;;0.00;0.00;;;;;31.24;44.05;99955.84;2087411;28;46243;-58
2023/07/15 00:36:19;;;;;;;;;1.40;1.00;;;;;31.22;43.73;99966.16;2088202;28;46710;-57
2023/07/15 00:37:20;;;;;;;;;0.00;0.00;;;;;31.22;43.69;99956.03;2087860;28;46316;-57
2023/07/15 00:38:20;;;;;;;;;2.00;1.00;;;;;31.21;43.98;99956.22;2087211;28;47187;-58
2023/07/15 00:39:21;;;;;;;;;0.00;0.00;;;;;31.20;44.08;99960.00;2087960;28;46424;-56
2023/07/15 00:40:22;;;;;;;;;1.25;1.25;;;;;31.18;44.00;99957.44;2087788;28;46601;-57
2023/07/15 00:41:26;;;;;;;;;1.00;1.00;;;;;31.18;44.32;99962.91;2087796;28;46460;-58
2023/07/15 00:42:52;;;;;;;;;1.00;1.00;;;;;31.18;44.36;99957.44;2087804;28;46268;-57
2023/07/15 00:43:54;;;;;;;;;1.00;1.00;;;;;31.12;44.78;99954.56;2087365;28;46909;-57
2023/07/15 00:44:54;;;;;;;;;1.00;1.00;;;;;31.16;44.77;99951.28;2087881;28;46398;-57
2023/07/15 00:46:19;;;;;;;;;0.25;0.25;;;;;31.19;44.43;99959.16;2087614;28;46516;-57
2023/07/15 00:47:32;;;;;;;;;1.20;1.00;;;;;31.18;44.97;99959.31;2088055;28;46340;-56
2023/07/15 00:48:35;;;;;;;;;2.60;1.00;;;;;31.16;45.03;99954.03;2079158;28;46140;-58
2023/07/15 00:49:36;;;;;;;;;2.25;2.25;;;;;31.15;45.04;99962.44;2079857;28;46693;-57
2023/07/15 00:50:39;;;;;;;;;0.00;0.00;;;;;31.14;45.89;99958.00;2087802;28;46666;-56
2023/07/15 00:51:43;;;;;;;;;0.40;0.40;;;;;31.12;45.92;99952.66;2088199;28;46740;-57
2023/07/15 00:52:44;;;;;;;;;0.00;0.00;;;;;31.11;46.35;99956.44;2071204;28;47117;-56
2023/07/15 00:53:44;;;;;;;;;1.25;1.00;;;;;31.11;46.28;99959.19;2078494;28;46514;-56
2023/07/15 00:54:48;;;;;;;;;0.50;0.50;;;;;31.11;46.62;99961.06;2088184;28;46971;-55
2023/07/15 00:55:48;;;;;;;;;0.60;0.60;;;;;31.08;46.58;99956.81;2088085;28;46398;-59
2023/07/15 00:56:49;;;;;;;;;1.50;1.50;;;;;31.07;46.38;99952.38;2087529;28;47058;-56
2023/07/15 00:57:49;;;;;;;;;1.50;0.50;;;;;31.06;47.21;99953.41;2087766;28;46401;-54
2023/07/15 00:58:50;;;;;;;;;1.00;1.00;;;;;31.05;46.96;99968.16;2087599;28;45859;-55
2023/07/15 00:59:54;;;;;;;;;2.00;1.25;;;;;31.05;46.94;99968.16;2087481;28;46291;-57
2023/07/15 01:00:55;;;;;;;;;1.60;0.20;;;;;31.03;47.53;99964.75;2087749;28;46351;-55
2023/07/15 01:01:55;;;;;;;;;3.00;1.00;;;;;31.03;47.80;99962.00;2087633;28;46729;-56
2023/07/15 01:02:56;;;;;;;;;0.00;0.00;;;;;31.01;48.04;99956.72;2090623;28;46171;-58
2023/07/15 01:03:57;;;;;;;;;1.33;1.00;;;;;30.98;48.18;99959.81;2100115;28;46752;-55
2023/07/15 01:04:57;;;;;;;;;2.00;2.00;;;;;30.97;48.12;99955.38;2105371;28;46576;-57
2023/07/15 01:05:57;;;;;;;;;1.25;1.00;;;;;30.98;48.37;99957.06;2105681;28;46682;-57
2023/07/15 01:06:57;;;;;;;;;0.25;0.25;;;;;30.98;48.34;99969.91;2105384;28;46251;-57
2023/07/15 01:07:58;;;;;;;;;2.50;2.50;;;;;30.97;49.62;99951.78;2105293;28;46573;-57
2023/07/15 01:08:58;;;;;;;;;1.00;1.00;;;;;30.97;49.03;99957.25;2105137;28;45680;-57
2023/07/15 01:09:59;;;;;;;;;0.00;0.00;;;;;30.94;48.98;99960.38;2105630;28;47095;-57
2023/07/15 01:11:00;;;;;;;;;0.00;0.00;;;;;30.92;49.87;99962.44;2096810;28;46652;-57
2023/07/15 01:12:00;;;;;;;;;1.00;1.00;;;;;30.89;50.05;99966.41;2096319;28;46292;-56
2023/07/15 01:13:05;;;;;;;;;0.33;0.33;;;;;30.89;49.73;99960.94;2096256;28;46413;-56
2023/07/15 01:14:06;;;;;;;;;1.20;1.00;;;;;30.86;50.02;99960.41;2097030;28;46701;-57
2023/07/15 01:15:07;;;;;;;;;1.00;1.00;;;;;30.87;50.68;99962.97;2105349;28;46260;-57
2023/07/15 01:16:07;;;;;;;;;0.00;0.00;;;;;30.86;50.34;99968.63;2086966;28;46600;-57
2023/07/15 01:17:07;;;;;;;;;0.00;0.00;;;;;30.85;50.02;99966.94;2087375;28;46538;-57
2023/07/15 01:18:08;;;;;;;;;0.25;0.25;;;;;30.86;51.21;99965.91;2096896;28;46913;-56
2023/07/15 01:19:08;;;;;;;;;1.00;1.00;;;;;30.84;51.29;99963.34;2104704;28;46512;-56
2023/07/15 01:20:09;;;;;;;;;0.67;0.00;;;;;30.84;51.46;99963.34;2105135;28;46677;-57
2023/07/15 01:21:12;;;;;;;;;0.00;0.00;;;;;30.85;51.96;99966.94;2104560;28;46521;-57
2023/07/15 01:22:12;;;;;;;;;0.80;0.80;;;;;30.83;52.36;99956.16;2105253;28;46935;-57
2023/07/15 01:23:13;;;;;;;;;0.00;0.00;;;;;30.81;52.51;99946.44;2096507;28;46209;-58
2023/07/15 01:24:14;;;;;;;;;1.00;0.00;;;;;30.78;52.21;99960.50;2088556;28;46882;-57
2023/07/15 01:25:14;;;;;;;;;1.00;1.00;;;;;30.74;52.99;99952.63;2096303;28;46318;-57
2023/07/15 01:26:14;;;;;;;;;0.00;0.00;;;;;30.72;53.03;99954.69;2105432;28;46474;-57
2023/07/15 01:27:15;;;;;;;;;0.25;0.25;;;;;30.71;53.01;99966.69;2104846;28;46661;-58
2023/07/15 01:28:15;;;;;;;;;1.00;1.00;;;;;30.69;53.37;99968.75;2105399;28;46205;-57
2023/07/15 01:29:15;;;;;;;;;0.00;0.00;;;;;30.67;53.88;99959.03;2105115;28;46962;-56
2023/07/15 01:30:16;;;;;;;;;0.00;0.00;;;;;30.65;54.01;99961.09;2105532;28;46407;-55
2023/07/15 01:31:18;;;;;;;;;0.00;0.00;;;;;30.64;54.23;99964.88;2105268;28;46724;-56
2023/07/15 01:32:18;;;;;;;;;1.25;1.00;;;;;30.63;54.85;99963.16;2078773;28;46762;-57
2023/07/15 01:33:18;;;;;;;;;0.00;0.00;;;;;30.62;54.78;99962.28;2078595;28;46689;-58
2023/07/15 01:34:22;;;;;;;;;0.33;0.33;;;;;30.57;55.17;99963.84;2096594;28;46891;-55
2023/07/15 01:35:22;;;;;;;;;0.00;0.00;;;;;30.56;54.87;99960.25;2100466;28;46758;-57
2023/07/15 01:36:24;;;;;;;;;0.00;0.00;;;;;30.55;55.51;99961.28;2105506;28;46632;-57
2023/07/15 01:37:25;;;;;;;;;0.00;0.00;;;;;30.52;55.30;99956.19;2105603;28;46712;-56
2023/07/15 01:38:25;;;;;;;;;0.00;0.00;;;;;30.50;56.18;99955.50;2105273;28;46930;-55
2023/07/15 01:39:26;;;;;;;;;0.67;0.67;;;;;30.50;55.72;99957.41;2105104;28;46491;-57
2023/07/15 01:40:27;;;;;;;;;0.00;0.00;;;;;30.51;56.20;99959.09;2105246;28;46500;-57
2023/07/15 01:41:27;;;;;;;;;1.00;0.00;;;;;30.51;56.47;99949.00;2105462;28;46740;-58
2023/07/15 01:42:27;;;;;;;;;0.00;0.00;;;;;30.51;56.40;99953.63;2104826;28;46460;-57
2023/07/15 01:43:27;;;;;;;;;0.00;0.00;;;;;30.50;56.71;99958.25;2105175;28;46105;-58
2023/07/15 01:44:28;;;;;;;;;0.00;0.00;;;;;30.51;57.31;99945.41;2105518;28;46427;-57
2023/07/15 01:45:28;;;;;;;;;0.00;0.00;;;;;30.48;56.49;99944.72;2105263;28;46284;-58
2023/07/15 01:46:29;;;;;;;;;0.00;0.00;;;;;30.47;57.22;99937.53;2105075;28;46875;-57
2023/07/15 01:47:29;;;;;;;;;0.33;0.33;;;;;30.47;57.28;99943.00;2104965;28;46377;-57
2023/07/15 01:48:29;;;;;;;;;0.00;0.00;;;;;30.47;56.97;99939.41;2104796;28;46495;-57
2023/07/15 01:49:30;;;;;;;;;0.00;0.00;;;;;30.47;57.16;99932.06;2105125;28;46457;-57
2023/07/15 01:50:30;;;;;;;;;0.00;0.00;;;;;30.46;57.50;99930.34;2105396;28;46322;-56
2023/07/15 01:51:31;;;;;;;;;0.00;0.00;;;;;30.47;57.62;99937.53;2105314;28;47021;-57
2023/07/15 01:52:31;;;;;;;;;0.33;0.33;;;;;30.46;57.53;99934.97;2105237;28;46130;-57
2023/07/15 01:53:32;;;;;;;;;0.50;0.25;;;;;30.45;57.97;99944.22;2104819;28;46803;-58
2023/07/15 01:54:32;;;;;;;;;0.67;0.00;;;;;30.41;58.30;99935.53;2105394;28;45965;-58
2023/07/15 01:55:32;;;;;;;;;0.00;0.00;;;;;30.43;57.88;99930.72;2105055;28;46493;-56
2023/07/15 01:56:32;;;;;;;;;0.00;0.00;;;;;30.46;58.21;99924.88;2104732;28;46120;-55
2023/07/15 01:57:33;;;;;;;;;0.00;0.00;;;;;30.46;58.16;99916.66;2105379;28;46186;-56
2023/07/15 01:58:33;;;;;;;;;0.00;0.00;;;;;30.46;58.14;99918.56;2105021;28;46383;-57
2023/07/15 01:59:33;;;;;;;;;0.00;0.00;;;;;30.45;58.35;99922.31;2105029;28;46778;-57
2023/07/15 02:00:34;;;;;;;;;0.00;0.00;;;;;30.44;58.50;99923.38;2105200;28;46478;-57
2023/07/15 02:01:34;;;;;;;;;0.00;0.00;;;;;30.41;58.83;99921.84;2105138;28;46353;-58
2023/07/15 02:02:34;;;;;;;;;0.00;0.00;;;;;30.43;58.73;99919.78;2095980;28;46584;-57
2023/07/15 02:03:35;;;;;;;;;0.00;0.00;;;;;30.43;58.96;99918.91;2095900;28;46105;-55
2023/07/15 02:04:36;;;;;;;;;0.00;0.00;;;;;30.41;58.95;99913.63;2104798;28;45710;-57
2023/07/15 02:05:36;;;;;;;;;0.00;0.00;;;;;30.39;59.18;99909.38;2104539;28;46782;-57
2023/07/15 02:06:37;;;;;;;;;0.00;0.00;;;;;30.37;59.54;99903.22;2105281;28;46239;-55
2023/07/15 02:07:37;;;;;;;;;0.00;0.00;;;;;30.36;59.54;99909.72;2105014;28;46256;-57
2023/07/15 02:08:37;;;;;;;;;0.00;0.00;;;;;30.36;59.44;99912.44;2105231;28;46456;-56
2023/07/15 02:09:38;;;;;;;;;0.00;0.00;;;;;30.34;59.29;99914.53;2105253;28;46503;-57
2023/07/15 02:10:38;;;;;;;;;0.00;0.00;;;;;30.34;59.72;99898.09;2096043;28;46209;-55
2023/07/15 02:11:39;;;;;;;;;0.00;0.00;;;;;30.35;60.22;99910.75;2095993;28;47160;-57
2023/07/15 02:12:39;;;;;;;;;0.00;0.00;;;;;30.34;60.42;99903.56;2105334;28;46446;-55
2023/07/15 02:13:39;;;;;;;;;2.00;1.00;;;;;30.32;60.56;99908.38;2104706;28;46693;-56
2023/07/15 02:14:40;;;;;;;;;0.00;0.00;;;;;30.32;60.10;99906.50;2105213;28;46287;-57
2023/07/15 02:15:40;;;;;;;;;0.67;0.33;;;;;30.30;60.14;99910.44;2104491;28;46714;-57
2023/07/15 02:16:40;;;;;;;;;0.00;0.00;;;;;30.30;60.18;99903.09;2105176;28;46604;-57
2023/07/15 02:17:43;;;;;;;;;1.00;1.00;;;;;30.31;60.79;99899.31;2104841;28;46211;-57
2023/07/15 02:18:43;;;;;;;;;0.00;0.00;;;;;30.29;60.80;99906.00;2105049;28;46597;-54
2023/07/15 02:19:43;;;;;;;;;0.00;0.00;;;;;30.28;61.39;99898.84;2104737;28;46627;-56
2023/07/15 02:20:46;;;;;;;;;1.00;1.00;;;;;30.25;61.12;99905.53;2105092;28;46454;-57
2023/07/15 02:21:46;;;;;;;;;0.40;0.40;;;;;30.25;61.29;99907.41;2104805;28;46379;-57
2023/07/15 02:22:46;;;;;;;;;0.00;0.00;;;;;30.28;61.22;99907.03;2105148;28;46412;-56
2023/07/15 02:23:47;;;;;;;;;0.50;0.50;;;;;30.27;61.34;99908.94;2105194;28;46555;-57
2023/07/15 02:24:47;;;;;;;;;0.00;0.00;;;;;30.21;61.02;99901.41;2104864;28;46244;-57
2023/07/15 02:25:47;;;;;;;;;0.00;0.00;;;;;30.21;61.71;99903.31;2104422;28;46331;-55
2023/07/15 02:26:48;;;;;;;;;0.00;0.00;;;;;30.20;61.65;99902.47;2087133;28;46471;-57
2023/07/15 02:27:49;;;;;;;;;0.00;0.00;;;;;30.20;61.97;99904.34;2087621;28;46345;-57
2023/07/15 02:28:49;;;;;;;;;1.00;0.00;;;;;30.20;62.40;99907.94;2087197;28;46796;-54
2023/07/15 02:29:53;;;;;;;;;0.00;0.00;;;;;30.22;61.58;99905.00;2087308;28;46823;-55
2023/07/15 02:30:54;;;;;;;;;0.80;0.80;;;;;30.31;62.21;99914.88;2086869;28;46433;-58
2023/07/15 02:31:54;;;;;;;;;0.00;0.00;;;;;30.32;61.62;99920.19;2086960;28;46618;-57
2023/07/15 02:32:54;;;;;;;;;0.25;0.25;;;;;30.34;62.10;99920.00;2086892;28;46762;-57
2023/07/15 02:33:55;;;;;;;;;0.25;0.25;;;;;30.35;61.64;99928.03;2087269;28;46671;-57
2023/07/15 02:34:55;;;;;;;;;0.00;0.00;;;;;30.37;61.53;99922.41;2087282;28;46194;-57
2023/07/15 02:35:55;;;;;;;;;0.25;0.25;;;;;30.36;62.54;99918.78;2086928;28;46859;-55
2023/07/15 02:36:56;;;;;;;;;1.00;1.00;;;;;30.36;62.39;99921.50;2087493;28;46299;-56
2023/07/15 02:37:56;;;;;;;;;0.00;0.00;;;;;30.35;62.70;99919.81;2087427;28;46276;-55
2023/07/15 02:38:57;;;;;;;;;0.00;0.00;;;;;30.32;62.52;99911.97;2087054;28;46356;-56
2023/07/15 02:39:57;;;;;;;;;0.75;0.75;;;;;30.31;62.85;99915.75;2087034;28;46384;-59
2023/07/15 02:40:58;;;;;;;;;0.00;0.00;;;;;30.30;62.89;99914.03;2087072;28;46262;-55
2023/07/15 02:41:58;;;;;;;;;0.00;0.00;;;;;30.28;63.20;99921.59;2087146;28;46143;-55
2023/07/15 02:42:58;;;;;;;;;0.00;0.00;;;;;30.26;63.46;99925.53;2087065;28;46759;-57
2023/07/15 02:43:59;;;;;;;;;0.00;0.00;;;;;30.24;63.91;99916.63;2087215;28;46593;-57
2023/07/15 02:45:08;;;;;;;;;0.00;0.00;;;;;30.23;64.12;99926.72;2086967;28;46769;-58
2023/07/15 02:46:08;;;;;;;;;0.00;0.00;;;;;30.20;63.90;99931.72;2080410;28;46394;-55
2023/07/15 02:47:08;;;;;;;;;1.00;1.00;;;;;30.15;63.49;99933.09;2071938;28;46509;-56
2023/07/15 02:48:09;;;;;;;;;0.00;0.00;;;;;30.17;64.33;99922.84;2080349;28;46184;-58
2023/07/15 02:49:09;;;;;;;;;0.00;0.00;;;;;30.17;64.45;99928.31;2088042;28;46545;-57
2023/07/15 02:50:09;;;;;;;;;0.00;0.00;;;;;30.15;64.05;99938.59;2088662;28;46595;-58
2023/07/15 02:51:10;;;;;;;;;0.00;0.00;;;;;30.16;64.48;99933.97;2088313;28;46588;-57
2023/07/15 02:52:10;;;;;;;;;0.00;0.00;;;;;30.17;63.98;99932.94;2088682;28;46586;-57
2023/07/15 02:53:10;;;;;;;;;0.50;0.50;;;;;30.18;64.23;99927.28;2088046;28;46189;-56
2023/07/15 02:54:11;;;;;;;;;0.00;0.00;;;;;30.18;64.55;99926.41;2088560;28;46403;-57
2023/07/15 02:55:12;;;;;;;;;0.25;0.25;;;;;30.18;64.04;99935.47;2088299;28;46382;-57
2023/07/15 02:56:12;;;;;;;;;4.75;2.00;;;;;30.19;64.50;99936.34;2088560;28;46231;-58
2023/07/15 02:57:12;;;;;;;;;0.00;0.00;;;;;30.18;63.99;99929.16;2088454;28;47015;-57
2023/07/15 02:58:13;;;;;;;;;0.25;0.25;;;;;30.20;64.04;99926.25;2091719;28;46732;-57
2023/07/15 02:59:14;;;;;;;;;0.00;0.00;;;;;30.21;64.49;99933.41;2106373;28;46924;-54
2023/07/15 03:00:15;;;;;;;;;0.00;0.00;;;;;30.20;63.88;99929.81;2106393;28;46599;-57
2023/07/15 03:01:16;;;;;;;;;0.00;0.00;;;;;30.22;64.41;99921.44;2106544;28;46527;-55
2023/07/15 03:02:16;;;;;;;;;0.75;0.75;;;;;30.20;64.46;99927.09;2106725;28;46723;-57
2023/07/15 03:03:17;;;;;;;;;0.00;0.00;;;;;30.22;63.91;99927.75;2106043;28;46544;-57
2023/07/15 03:04:18;;;;;;;;;0.00;0.00;;;;;30.23;64.41;99928.59;2106360;28;46349;-57
2023/07/15 03:05:19;;;;;;;;;0.00;0.00;;;;;30.23;64.49;99918.50;2097231;28;46727;-55
2023/07/15 03:06:19;;;;;;;;;0.25;0.00;;;;;30.23;64.27;99913.03;2096899;28;46775;-55
2023/07/15 03:07:20;;;;;;;;;0.00;0.00;;;;;30.22;64.48;99913.22;2097939;28;46620;-55
2023/07/15 03:08:21;;;;;;;;;1.00;1.00;;;;;30.21;64.98;99908.78;2106041;28;46587;-57
2023/07/15 03:09:21;;;;;;;;;0.00;0.00;;;;;30.19;64.61;99914.44;2106357;28;46110;-57
2023/07/15 03:10:22;;;;;;;;;0.00;0.00;;;;;30.20;64.70;99907.94;2106033;28;46900;-57
2023/07/15 03:11:22;;;;;;;;;0.00;0.00;;;;;30.20;64.67;99909.81;2106244;28;46175;-57
2023/07/15 03:12:22;;;;;;;;;0.00;0.00;;;;;30.20;64.73;99913.41;2106417;28;46732;-57
2023/07/15 03:13:25;;;;;;;;;0.00;0.00;;;;;30.21;65.29;99909.63;2106035;28;46765;-57
2023/07/15 03:14:26;;;;;;;;;0.00;0.00;;;;;30.20;65.15;99916.13;2106432;28;46646;-55
2023/07/15 03:15:26;;;;;;;;;0.00;0.00;;;;;30.20;65.11;99920.75;2105507;28;46638;-56
2023/07/15 03:16:26;;;;;;;;;0.00;0.00;;;;;30.20;65.12;99931.72;2106766;28;46686;-57
2023/07/15 03:17:27;;;;;;;;;0.25;0.25;;;;;30.18;64.87;99931.91;2085996;28;46159;-56
2023/07/15 03:18:28;;;;;;;;;0.00;0.00;;;;;30.17;65.19;99930.19;2079876;28;47024;-57
2023/07/15 03:19:30;;;;;;;;;1.00;1.00;;;;;30.16;65.74;99931.22;2103624;28;46592;-58
2023/07/15 03:20:31;;;;;;;;;1.00;1.00;;;;;30.14;65.49;99931.41;2105945;28;46925;-55
2023/07/15 03:21:31;;;;;;;;;0.00;0.00;;;;;30.11;66.32;99934.50;2105673;28;46525;-56
2023/07/15 03:22:31;;;;;;;;;0.00;0.00;;;;;30.11;66.19;99928.16;2105352;27;46262;-56
2023/07/15 03:23:32;;;;;;;;;0.00;0.00;;;;;30.10;66.26;99929.19;2105931;28;46373;-56
2023/07/15 03:24:34;;;;;;;;;0.00;0.00;;;;;30.11;66.79;99919.94;2106149;28;46898;-56
2023/07/15 03:25:34;;;;;;;;;0.00;0.00;;;;;30.06;66.43;99919.63;2105869;28;46143;-57
2023/07/15 03:26:35;;;;;;;;;0.00;0.00;;;;;30.03;66.84;99918.09;2106080;28;46625;-57
2023/07/15 03:27:35;;;;;;;;;0.00;0.00;;;;;30.03;67.17;99920.81;2106472;28;46370;-57
2023/07/15 03:28:35;;;;;;;;;0.00;0.00;;;;;29.95;67.73;99904.44;2106358;28;46916;-56
2023/07/15 03:29:36;;;;;;;;;0.00;0.00;;;;;29.94;68.27;99910.09;2105917;28;46692;-56
2023/07/15 03:30:36;;;;;;;;;0.50;0.50;;;;;29.91;67.82;99911.28;2106072;28;46275;-56
2023/07/15 03:31:36;;;;;;;;;0.00;0.00;;;;;29.91;68.61;99908.56;2106245;28;46855;-57
2023/07/15 03:32:38;;;;;;;;;0.25;0.25;;;;;29.89;69.10;99908.75;2106634;28;46432;-55
2023/07/15 03:33:38;;;;;;;;;0.00;0.00;;;;;29.88;69.08;99920.72;2105661;28;46564;-56
2023/07/15 03:34:38;;;;;;;;;1.50;0.00;;;;;29.86;69.07;99921.94;2097048;28;46659;-56
2023/07/15 03:35:43;;;;;;;;;0.00;0.00;;;;;29.85;69.41;99922.94;2096587;28;46367;-57
2023/07/15 03:36:43;;;;;;;;;2.20;0.00;;;;;29.83;69.92;99917.63;2097693;28;46291;-57
2023/07/15 03:37:44;;;;;;;;;0.25;0.00;;;;;29.81;69.75;99927.91;2105723;28;46590;-59
2023/07/15 03:38:44;;;;;;;;;1.00;0.00;;;;;29.79;70.14;99929.97;2105880;28;46301;-57
2023/07/15 03:39:44;;;;;;;;;0.00;0.00;;;;;29.78;70.21;99938.34;2106032;28;46730;-56
2023/07/15 03:40:49;;;;;;;;;0.00;0.00;;;;;29.78;70.50;99930.16;2106155;28;45314;-56
2023/07/15 03:41:49;;;;;;;;;0.80;0.80;;;;;29.74;70.87;99931.53;2105984;28;46873;-57
2023/07/15 03:42:49;;;;;;;;;0.00;0.00;;;;;29.73;70.76;99925.22;2106301;28;46549;-57
2023/07/15 03:43:50;;;;;;;;;1.00;1.00;;;;;29.74;70.98;99928.81;2106033;28;46948;-58
2023/07/15 03:44:50;;;;;;;;;0.75;0.75;;;;;29.73;71.05;99925.22;2106057;28;46615;-57
2023/07/15 03:45:50;;;;;;;;;0.00;0.00;;;;;29.72;70.99;99923.50;2096363;28;46380;-57
2023/07/15 03:46:54;;;;;;;;;0.25;0.00;;;;;29.69;71.23;99932.06;2096897;28;46486;-57
2023/07/15 03:47:55;;;;;;;;;0.00;0.00;;;;;29.69;72.50;99933.94;2106361;28;46707;-56
2023/07/15 03:48:55;;;;;;;;;1.00;0.00;;;;;29.66;71.89;99942.50;2106112;28;46371;-57
2023/07/15 03:49:56;;;;;;;;;0.00;0.00;;;;;29.64;71.96;99939.94;2106094;28;46728;-57
2023/07/15 03:50:56;;;;;;;;;0.00;0.00;;;;;29.62;72.17;99933.78;2106263;28;46396;-57
2023/07/15 03:51:58;;;;;;;;;1.50;0.25;;;;;29.59;72.27;99929.50;2105783;28;46807;-54
2023/07/15 03:52:58;;;;;;;;;1.60;1.60;;;;;29.65;72.81;99933.44;2105800;28;46277;-57
2023/07/15 03:53:58;;;;;;;;;1.00;0.00;;;;;29.65;72.39;99938.91;2105984;28;46308;-56
2023/07/15 03:54:59;;;;;;;;;1.25;0.00;;;;;29.58;72.61;99940.63;2105572;28;46490;-56
2023/07/15 03:55:59;;;;;;;;;0.00;0.00;;;;;29.56;72.94;99938.06;2105690;28;46558;-56
2023/07/15 03:56:59;;;;;;;;;0.00;0.00;;;;;29.57;72.98;99937.03;2105026;27;46327;-56
2023/07/15 03:58:00;;;;;;;;;0.00;0.00;;;;;29.57;72.95;99928.84;2105558;28;46450;-55
2023/07/15 03:59:01;;;;;;;;;0.00;0.00;;;;;29.56;73.03;99929.88;2106063;28;46339;-58
2023/07/15 04:00:06;;;;;;;;;0.00;0.00;;;;;29.57;72.87;99917.91;2106205;28;46426;-54
2023/07/15 04:01:06;;;;;;;;;0.00;0.00;;;;;29.57;73.23;99908.84;2096924;28;46893;-55
2023/07/15 04:02:06;;;;;;;;;1.00;1.00;;;;;29.57;73.17;99906.09;2096824;28;46465;-58
2023/07/15 04:03:07;;;;;;;;;0.00;0.00;;;;;29.56;73.41;99898.94;2106155;28;47043;-56
2023/07/15 04:04:08;;;;;;;;;1.00;1.00;;;;;29.57;73.36;99904.22;2096394;28;46278;-56
2023/07/15 04:05:08;;;;;;;;;0.00;0.00;;;;;29.55;73.16;99903.56;2096759;28;46494;-57
2023/07/15 04:06:09;;;;;;;;;0.00;0.00;;;;;29.51;73.89;99879.47;2105711;28;45100;-57
2023/07/15 04:07:09;;;;;;;;;0.67;0.67;;;;;29.55;73.79;99887.16;2106035;28;46395;-57
2023/07/15 04:08:10;;;;;;;;;0.00;0.00;;;;;29.57;73.47;99887.81;2105838;28;46828;-55
2023/07/15 04:09:12;;;;;;;;;0.00;0.00;;;;;29.59;73.63;99887.63;2096723;28;46331;-57
2023/07/15 04:10:12;;;;;;;;;1.00;0.50;;;;;29.59;73.47;99893.97;2097137;28;46934;-57
2023/07/15 04:11:13;;;;;;;;;1.00;1.00;;;;;29.62;73.32;99897.41;2105116;28;46475;-57
2023/07/15 04:12:13;;;;;;;;;0.00;0.00;;;;;29.59;73.40;99896.69;2104967;28;46561;-57
2023/07/15 04:13:13;;;;;;;;;0.33;0.33;;;;;29.58;73.35;99905.94;2105971;28;46808;-57
2023/07/15 04:14:14;;;;;;;;;0.00;0.00;;;;;29.62;73.53;99919.28;2105941;28;46610;-55
2023/07/15 04:15:14;;;;;;;;;1.00;1.00;;;;;29.59;73.55;99926.78;2105450;28;46373;-55
2023/07/15 04:16:14;;;;;;;;;0.00;0.00;;;;;29.73;72.77;99943.47;2105811;28;46282;-57
2023/07/15 04:17:15;;;;;;;;;0.00;0.00;;;;;29.68;73.68;99968.63;2087871;28;46231;-57
2023/07/15 04:18:16;;;;;;;;;0.33;0.33;;;;;29.67;74.13;99997.00;2087716;28;46623;-55
2023/07/15 04:19:17;;;;;;;;;0.00;0.00;;;;;29.66;74.00;100010.84;2096996;28;46744;-55
2023/07/15 04:20:17;;;;;;;;;0.00;0.00;;;;;29.64;73.91;100000.09;2096606;28;46611;-57
2023/07/15 04:21:17;;;;;;;;;1.00;1.00;;;;;29.65;73.91;99990.00;2105851;28;46882;-57
2023/07/15 04:22:18;;;;;;;;;1.25;1.25;;;;;29.66;74.27;99959.75;2105626;28;46610;-57
2023/07/15 04:23:18;;;;;;;;;0.75;0.75;;;;;29.64;74.08;99956.34;2105753;28;46649;-57
2023/07/15 04:24:18;;;;;;;;;0.00;0.00;;;;;29.61;74.49;99950.38;2105426;28;46811;-57
2023/07/15 04:25:19;;;;;;;;;0.00;0.00;;;;;29.48;74.45;99959.13;2105622;28;46325;-57
2023/07/15 04:26:20;;;;;;;;;0.75;0.75;;;;;29.61;73.92;99955.84;2105671;28;46732;-57
2023/07/15 04:27:20;;;;;;;;;0.00;0.00;;;;;29.62;75.33;99949.34;2096664;28;46467;-56
2023/07/15 04:28:21;;;;;;;;;0.00;0.00;;;;;29.58;74.58;99948.81;2096777;28;46746;-55
2023/07/15 04:29:21;;;;;;;;;0.00;0.00;;;;;29.56;74.23;99932.59;2105664;28;46728;-57
2023/07/15 04:30:21;;;;;;;;;0.00;0.00;;;;;29.62;74.27;99916.53;2096508;28;46734;-56
2023/07/15 04:31:22;;;;;;;;;0.00;0.00;;;;;29.67;74.49;99914.13;2088681;28;46210;-54
2023/07/15 04:32:23;;;;;;;;;0.25;0.00;;;;;29.64;74.34;99917.22;2096733;28;46169;-57
2023/07/15 04:33:23;;;;;;;;;0.00;0.00;;;;;29.65;74.71;99913.44;2105495;28;48109;-56
2023/07/15 04:34:23;;;;;;;;;0.00;0.00;;;;;29.66;75.19;99910.53;2105525;28;46304;-57
2023/07/15 04:35:24;;;;;;;;;0.00;0.00;;;;;29.57;74.80;99906.97;2086873;28;46395;-55
2023/07/15 04:36:24;;;;;;;;;1.00;0.00;;;;;29.68;75.16;99902.16;2087757;28;46389;-57
2023/07/15 04:37:25;;;;;;;;;1.00;0.00;;;;;29.68;75.30;99902.16;2105875;28;46800;-54
2023/07/15 04:38:25;;;;;;;;;0.00;0.00;;;;;29.61;75.81;99896.56;2096972;28;46339;-57
2023/07/15 04:39:27;;;;;;;;;0.00;0.00;;;;;29.68;75.17;99885.75;2096262;28;46817;-56
2023/07/15 04:40:27;;;;;;;;;0.00;0.00;;;;;29.66;75.61;99880.44;2103268;28;46286;-56
2023/07/15 04:41:28;;;;;;;;;0.00;0.00;;;;;29.66;75.33;99879.59;2105716;28;46629;-57
2023/07/15 04:42:28;;;;;;;;;0.25;0.25;;;;;29.67;75.46;99884.03;2105746;28;46663;-55
2023/07/15 04:43:28;;;;;;;;;0.00;0.00;;;;;29.54;76.02;99879.13;2105324;28;46503;-56
2023/07/15 04:44:30;;;;;;;;;0.00;0.00;;;;;29.64;76.26;99887.13;2105639;28;46670;-56
2023/07/15 04:45:32;;;;;;;;;0.00;0.00;;;;;29.65;75.82;99894.31;2104671;28;46824;-57
2023/07/15 04:46:33;;;;;;;;;0.20;0.20;;;;;29.66;76.13;99891.38;2105618;28;46993;-57
2023/07/15 04:47:34;;;;;;;;;0.00;0.00;;;;;29.66;75.70;99901.47;2105379;28;46679;-57
2023/07/15 04:48:34;;;;;;;;;0.00;0.00;;;;;29.59;75.73;99898.56;2105621;28;46445;-57